sensor_id;sensor_type;location;lat;lon;timestamp;temperature;humidity
4399;DHT22;2213;49.720;7.296;2023-09-30T00:00:31;16.20;99.90
4399;DHT22;2213;49.720;7.296;2023-09-30T00:03:02;16.20;99.90
4399;DHT22;2213;49.720;7.296;2023-09-30T00:05:32;16.00;99.90
4399;DHT22;2213;49.720;7.296;2023-09-30T00:08:02;15.90;99.90
4399;DHT22;2213;49.720;7.296;2023-09-30T00:10:30;16.00;99.90
4399;DHT22;2213;49.720;7.296;2023-09-30T00:13:02;15.80;99.90
4399;DHT22;2213;49.720;7.296;2023-09-30T00:15:34;15.80;99.90
4399;DHT22;2213;49.720;7.296;2023-09-30T00:18:04;15.90;99.90
4399;DHT22;2213;49.720;7.296;2023-09-30T00:20:37;15.80;99.90
4399;DHT22;2213;49.720;7.296;2023-09-30T00:23:07;15.80;99.90
4399;DHT22;2213;49.720;7.296;2023-09-30T00:25:37;15.70;99.90
4399;DHT22;2213;49.720;7.296;2023-09-30T00:28:06;15.80;99.90
4399;DHT22;2213;49.720;7.296;2023-09-30T00:30:36;15.70;99.90
4399;DHT22;2213;49.720;7.296;2023-09-30T00:33:07;15.50;99.90
4399;DHT22;2213;49.720;7.296;2023-09-30T00:35:38;15.50;99.90
4399;DHT22;2213;49.720;7.296;2023-09-30T00:38:08;15.50;99.90
4399;DHT22;2213;49.720;7.296;2023-09-30T00:40:38;15.40;99.90
4399;DHT22;2213;49.720;7.296;2023-09-30T00:43:18;15.40;99.90
4399;DHT22;2213;49.720;7.296;2023-09-30T00:45:48;15.30;99.90
4399;DHT22;2213;49.720;7.296;2023-09-30T00:48:26;15.30;99.90
4399;DHT22;2213;49.720;7.296;2023-09-30T00:50:58;15.40;99.90
4399;DHT22;2213;49.720;7.296;2023-09-30T00:53:28;15.30;99.90
4399;DHT22;2213;49.720;7.296;2023-09-30T00:56:00;15.20;99.90
4399;DHT22;2213;49.720;7.296;2023-09-30T00:58:29;15.10;99.90
4399;DHT22;2213;49.720;7.296;2023-09-30T01:01:00;15.10;99.90
4399;DHT22;2213;49.720;7.296;2023-09-30T01:03:28;15.10;99.90
4399;DHT22;2213;49.720;7.296;2023-09-30T01:06:00;15.00;99.90
4399;DHT22;2213;49.720;7.296;2023-09-30T01:08:31;14.90;99.90
4399;DHT22;2213;49.720;7.296;2023-09-30T01:11:02;14.90;99.90
4399;DHT22;2213;49.720;7.296;2023-09-30T01:13:35;15.00;99.90
4399;DHT22;2213;49.720;7.296;2023-09-30T01:16:08;15.00;99.90
4399;DHT22;2213;49.720;7.296;2023-09-30T01:18:40;14.80;99.90
4399;DHT22;2213;49.720;7.296;2023-09-30T01:21:12;14.80;99.90
4399;DHT22;2213;49.720;7.296;2023-09-30T01:23:44;14.90;99.90
4399;DHT22;2213;49.720;7.296;2023-09-30T01:26:14;14.80;99.90
4399;DHT22;2213;49.720;7.296;2023-09-30T01:28:44;14.80;99.90
4399;DHT22;2213;49.720;7.296;2023-09-30T01:31:16;14.60;99.90
4399;DHT22;2213;49.720;7.296;2023-09-30T01:33:46;14.50;99.90
4399;DHT22;2213;49.720;7.296;2023-09-30T01:36:16;14.50;99.90
4399;DHT22;2213;49.720;7.296;2023-09-30T01:38:47;14.60;99.90
4399;DHT22;2213;49.720;7.296;2023-09-30T01:41:17;14.70;99.90
4399;DHT22;2213;49.720;7.296;2023-09-30T01:43:46;14.50;99.90
4399;DHT22;2213;49.720;7.296;2023-09-30T01:46:17;14.60;99.90
4399;DHT22;2213;49.720;7.296;2023-09-30T01:48:47;14.50;99.90
4399;DHT22;2213;49.720;7.296;2023-09-30T01:51:17;14.40;99.90
4399;DHT22;2213;49.720;7.296;2023-09-30T01:53:50;14.30;99.90
4399;DHT22;2213;49.720;7.296;2023-09-30T01:56:20;14.30;99.90
4399;DHT22;2213;49.720;7.296;2023-09-30T01:58:50;14.40;99.90
4399;DHT22;2213;49.720;7.296;2023-09-30T02:01:20;14.50;99.90
4399;DHT22;2213;49.720;7.296;2023-09-30T02:03:53;14.40;99.90
4399;DHT22;2213;49.720;7.296;2023-09-30T02:06:23;14.30;99.90
4399;DHT22;2213;49.720;7.296;2023-09-30T02:08:54;14.40;99.90
4399;DHT22;2213;49.720;7.296;2023-09-30T02:11:24;14.30;99.90
4399;DHT22;2213;49.720;7.296;2023-09-30T02:13:54;14.20;99.90
4399;DHT22;2213;49.720;7.296;2023-09-30T02:16:23;14.20;99.90
4399;DHT22;2213;49.720;7.296;2023-09-30T02:18:54;14.10;99.90
4399;DHT22;2213;49.720;7.296;2023-09-30T02:21:25;14.20;99.90
4399;DHT22;2213;49.720;7.296;2023-09-30T02:23:57;14.30;99.90
4399;DHT22;2213;49.720;7.296;2023-09-30T02:26:28;14.20;99.90
4399;DHT22;2213;49.720;7.296;2023-09-30T02:28:58;14.00;99.90
4399;DHT22;2213;49.720;7.296;2023-09-30T02:31:27;14.00;99.90
4399;DHT22;2213;49.720;7.296;2023-09-30T02:33:57;14.00;99.90
4399;DHT22;2213;49.720;7.296;2023-09-30T02:36:27;14.00;99.90
4399;DHT22;2213;49.720;7.296;2023-09-30T02:38:58;14.00;99.90
4399;DHT22;2213;49.720;7.296;2023-09-30T02:41:29;14.00;99.90
4399;DHT22;2213;49.720;7.296;2023-09-30T02:43:59;13.80;99.90
4399;DHT22;2213;49.720;7.296;2023-09-30T02:46:29;13.90;99.90
4399;DHT22;2213;49.720;7.296;2023-09-30T02:49:01;13.80;99.90
4399;DHT22;2213;49.720;7.296;2023-09-30T02:51:31;13.80;99.90
4399;DHT22;2213;49.720;7.296;2023-09-30T02:54:03;13.70;99.90
4399;DHT22;2213;49.720;7.296;2023-09-30T02:56:34;13.70;99.90
4399;DHT22;2213;49.720;7.296;2023-09-30T02:59:06;13.70;99.90
4399;DHT22;2213;49.720;7.296;2023-09-30T03:01:36;13.60;99.90
4399;DHT22;2213;49.720;7.296;2023-09-30T03:04:05;13.60;99.90
4399;DHT22;2213;49.720;7.296;2023-09-30T03:06:35;13.50;99.90
4399;DHT22;2213;49.720;7.296;2023-09-30T03:09:07;13.40;99.90
4399;DHT22;2213;49.720;7.296;2023-09-30T03:11:39;13.40;99.90
4399;DHT22;2213;49.720;7.296;2023-09-30T03:14:10;13.30;99.90
4399;DHT22;2213;49.720;7.296;2023-09-30T03:16:40;13.40;99.90
4399;DHT22;2213;49.720;7.296;2023-09-30T03:19:13;13.40;99.90
4399;DHT22;2213;49.720;7.296;2023-09-30T03:21:44;13.50;99.90
4399;DHT22;2213;49.720;7.296;2023-09-30T03:24:16;13.40;99.90
4399;DHT22;2213;49.720;7.296;2023-09-30T03:26:47;13.40;99.90
4399;DHT22;2213;49.720;7.296;2023-09-30T03:29:17;13.30;99.90
4399;DHT22;2213;49.720;7.296;2023-09-30T03:31:46;13.30;99.90
4399;DHT22;2213;49.720;7.296;2023-09-30T03:34:16;13.30;99.90
4399;DHT22;2213;49.720;7.296;2023-09-30T03:36:48;13.20;99.90
4399;DHT22;2213;49.720;7.296;2023-09-30T03:39:20;13.30;99.90
4399;DHT22;2213;49.720;7.296;2023-09-30T03:41:55;13.20;99.90
4399;DHT22;2213;49.720;7.296;2023-09-30T03:44:25;13.20;99.90
4399;DHT22;2213;49.720;7.296;2023-09-30T03:46:56;13.10;99.90
4399;DHT22;2213;49.720;7.296;2023-09-30T03:49:28;13.10;99.90
4399;DHT22;2213;49.720;7.296;2023-09-30T03:51:58;13.10;99.90
4399;DHT22;2213;49.720;7.296;2023-09-30T03:54:31;13.10;99.90
4399;DHT22;2213;49.720;7.296;2023-09-30T03:57:01;13.10;99.90
4399;DHT22;2213;49.720;7.296;2023-09-30T03:59:32;13.00;99.90
4399;DHT22;2213;49.720;7.296;2023-09-30T04:02:02;12.90;99.90
4399;DHT22;2213;49.720;7.296;2023-09-30T04:04:34;12.90;99.90
4399;DHT22;2213;49.720;7.296;2023-09-30T04:07:05;12.90;99.90
4399;DHT22;2213;49.720;7.296;2023-09-30T04:09:36;12.80;99.90
4399;DHT22;2213;49.720;7.296;2023-09-30T04:12:06;12.80;99.90
4399;DHT22;2213;49.720;7.296;2023-09-30T04:14:35;12.80;99.90
4399;DHT22;2213;49.720;7.296;2023-09-30T04:17:05;12.70;99.90
4399;DHT22;2213;49.720;7.296;2023-09-30T04:19:35;12.80;99.90
4399;DHT22;2213;49.720;7.296;2023-09-30T04:22:05;12.90;99.90
4399;DHT22;2213;49.720;7.296;2023-09-30T04:24:36;12.80;99.90
4399;DHT22;2213;49.720;7.296;2023-09-30T04:27:05;12.80;99.90
4399;DHT22;2213;49.720;7.296;2023-09-30T04:29:35;12.90;99.90
4399;DHT22;2213;49.720;7.296;2023-09-30T04:32:05;12.80;99.90
4399;DHT22;2213;49.720;7.296;2023-09-30T04:34:35;12.80;99.90
4399;DHT22;2213;49.720;7.296;2023-09-30T04:37:05;12.80;99.90
4399;DHT22;2213;49.720;7.296;2023-09-30T04:39:39;12.80;99.90
4399;DHT22;2213;49.720;7.296;2023-09-30T04:42:08;12.90;99.90
4399;DHT22;2213;49.720;7.296;2023-09-30T04:44:39;12.90;99.90
4399;DHT22;2213;49.720;7.296;2023-09-30T04:47:08;12.80;99.90
4399;DHT22;2213;49.720;7.296;2023-09-30T04:49:39;12.80;99.90
4399;DHT22;2213;49.720;7.296;2023-09-30T04:52:08;12.80;99.90
4399;DHT22;2213;49.720;7.296;2023-09-30T04:54:39;12.90;99.90
4399;DHT22;2213;49.720;7.296;2023-09-30T04:57:09;12.90;99.90
4399;DHT22;2213;49.720;7.296;2023-09-30T04:59:39;12.90;99.90
4399;DHT22;2213;49.720;7.296;2023-09-30T05:02:11;12.90;99.90
4399;DHT22;2213;49.720;7.296;2023-09-30T05:04:43;12.90;99.90
4399;DHT22;2213;49.720;7.296;2023-09-30T05:07:13;12.90;99.90
4399;DHT22;2213;49.720;7.296;2023-09-30T05:09:44;13.00;99.90
4399;DHT22;2213;49.720;7.296;2023-09-30T05:12:14;12.90;99.90
4399;DHT22;2213;49.720;7.296;2023-09-30T05:14:45;12.90;99.90
4399;DHT22;2213;49.720;7.296;2023-09-30T05:17:15;13.00;99.90
4399;DHT22;2213;49.720;7.296;2023-09-30T05:19:45;13.00;99.90
4399;DHT22;2213;49.720;7.296;2023-09-30T05:22:15;13.10;99.90
4399;DHT22;2213;49.720;7.296;2023-09-30T05:24:48;13.00;99.90
4399;DHT22;2213;49.720;7.296;2023-09-30T05:27:18;13.00;99.90
4399;DHT22;2213;49.720;7.296;2023-09-30T05:29:47;13.00;99.90
4399;DHT22;2213;49.720;7.296;2023-09-30T05:32:16;13.00;99.90
4399;DHT22;2213;49.720;7.296;2023-09-30T05:34:45;13.00;99.90
4399;DHT22;2213;49.720;7.296;2023-09-30T05:37:16;13.00;99.90
4399;DHT22;2213;49.720;7.296;2023-09-30T05:39:50;12.90;99.90
4399;DHT22;2213;49.720;7.296;2023-09-30T05:42:21;13.00;99.90
4399;DHT22;2213;49.720;7.296;2023-09-30T05:44:51;13.00;99.90
4399;DHT22;2213;49.720;7.296;2023-09-30T05:47:21;13.00;99.90
4399;DHT22;2213;49.720;7.296;2023-09-30T05:49:52;13.00;99.90
4399;DHT22;2213;49.720;7.296;2023-09-30T05:52:23;12.90;99.90
4399;DHT22;2213;49.720;7.296;2023-09-30T05:54:54;12.90;99.90
4399;DHT22;2213;49.720;7.296;2023-09-30T05:57:24;12.80;99.90
4399;DHT22;2213;49.720;7.296;2023-09-30T05:59:54;12.90;99.90
4399;DHT22;2213;49.720;7.296;2023-09-30T06:02:24;12.80;99.90
4399;DHT22;2213;49.720;7.296;2023-09-30T06:04:54;12.90;99.90
4399;DHT22;2213;49.720;7.296;2023-09-30T06:07:25;13.00;99.90
4399;DHT22;2213;49.720;7.296;2023-09-30T06:09:57;13.00;99.90
4399;DHT22;2213;49.720;7.296;2023-09-30T06:12:31;12.90;99.90
4399;DHT22;2213;49.720;7.296;2023-09-30T06:15:02;13.00;99.90
4399;DHT22;2213;49.720;7.296;2023-09-30T06:17:32;13.00;99.90
4399;DHT22;2213;49.720;7.296;2023-09-30T06:20:04;12.90;99.90
4399;DHT22;2213;49.720;7.296;2023-09-30T06:22:44;13.00;99.90
4399;DHT22;2213;49.720;7.296;2023-09-30T06:25:18;13.00;99.90
4399;DHT22;2213;49.720;7.296;2023-09-30T06:27:52;13.00;99.90
4399;DHT22;2213;49.720;7.296;2023-09-30T06:30:23;13.00;99.90
4399;DHT22;2213;49.720;7.296;2023-09-30T06:32:59;13.10;99.90
4399;DHT22;2213;49.720;7.296;2023-09-30T06:35:29;13.10;99.90
4399;DHT22;2213;49.720;7.296;2023-09-30T06:38:05;13.20;99.90
4399;DHT22;2213;49.720;7.296;2023-09-30T06:40:36;13.10;99.90
4399;DHT22;2213;49.720;7.296;2023-09-30T06:43:10;13.20;99.90
4399;DHT22;2213;49.720;7.296;2023-09-30T06:45:44;13.20;99.90
4399;DHT22;2213;49.720;7.296;2023-09-30T06:48:14;13.20;99.90
4399;DHT22;2213;49.720;7.296;2023-09-30T06:50:46;13.30;99.90
4399;DHT22;2213;49.720;7.296;2023-09-30T06:53:15;13.20;99.90
4399;DHT22;2213;49.720;7.296;2023-09-30T06:55:47;13.20;99.90
4399;DHT22;2213;49.720;7.296;2023-09-30T06:58:15;13.20;99.90
4399;DHT22;2213;49.720;7.296;2023-09-30T07:00:50;13.30;99.90
4399;DHT22;2213;49.720;7.296;2023-09-30T07:03:21;13.30;99.90
4399;DHT22;2213;49.720;7.296;2023-09-30T07:05:53;13.30;99.90
4399;DHT22;2213;49.720;7.296;2023-09-30T07:08:23;13.30;99.90
4399;DHT22;2213;49.720;7.296;2023-09-30T07:10:55;13.30;99.90
4399;DHT22;2213;49.720;7.296;2023-09-30T07:13:24;13.20;99.90
4399;DHT22;2213;49.720;7.296;2023-09-30T07:15:53;13.30;99.90
4399;DHT22;2213;49.720;7.296;2023-09-30T07:18:25;13.40;99.90
4399;DHT22;2213;49.720;7.296;2023-09-30T07:20:54;13.40;99.90
4399;DHT22;2213;49.720;7.296;2023-09-30T07:23:24;13.40;99.90
4399;DHT22;2213;49.720;7.296;2023-09-30T07:25:56;13.40;99.90
4399;DHT22;2213;49.720;7.296;2023-09-30T07:28:27;13.40;99.90
4399;DHT22;2213;49.720;7.296;2023-09-30T07:30:57;13.50;99.90
4399;DHT22;2213;49.720;7.296;2023-09-30T07:33:27;13.50;99.90
4399;DHT22;2213;49.720;7.296;2023-09-30T07:35:58;13.50;99.90
4399;DHT22;2213;49.720;7.296;2023-09-30T07:38:28;13.50;99.90
4399;DHT22;2213;49.720;7.296;2023-09-30T07:41:00;13.40;99.90
4399;DHT22;2213;49.720;7.296;2023-09-30T07:43:32;13.40;99.90
4399;DHT22;2213;49.720;7.296;2023-09-30T07:46:05;13.50;99.90
4399;DHT22;2213;49.720;7.296;2023-09-30T07:48:35;13.60;99.90
4399;DHT22;2213;49.720;7.296;2023-09-30T07:51:07;13.60;99.90
4399;DHT22;2213;49.720;7.296;2023-09-30T07:53:41;13.70;99.90
4399;DHT22;2213;49.720;7.296;2023-09-30T07:56:12;13.70;99.90
4399;DHT22;2213;49.720;7.296;2023-09-30T07:58:41;13.60;99.90
4399;DHT22;2213;49.720;7.296;2023-09-30T08:01:12;13.70;99.90
4399;DHT22;2213;49.720;7.296;2023-09-30T08:03:43;13.70;99.90
4399;DHT22;2213;49.720;7.296;2023-09-30T08:06:13;13.70;99.90
4399;DHT22;2213;49.720;7.296;2023-09-30T08:08:43;13.70;99.90
4399;DHT22;2213;49.720;7.296;2023-09-30T08:11:17;13.70;99.90
4399;DHT22;2213;49.720;7.296;2023-09-30T08:13:48;13.80;99.90
4399;DHT22;2213;49.720;7.296;2023-09-30T08:16:19;13.80;99.90
4399;DHT22;2213;49.720;7.296;2023-09-30T08:18:49;13.90;99.90
4399;DHT22;2213;49.720;7.296;2023-09-30T08:21:21;13.90;99.90
4399;DHT22;2213;49.720;7.296;2023-09-30T08:23:51;13.90;99.90
4399;DHT22;2213;49.720;7.296;2023-09-30T08:26:24;14.00;99.90
4399;DHT22;2213;49.720;7.296;2023-09-30T08:28:54;14.00;99.90
4399;DHT22;2213;49.720;7.296;2023-09-30T08:31:25;13.90;99.90
4399;DHT22;2213;49.720;7.296;2023-09-30T08:33:56;14.00;99.90
4399;DHT22;2213;49.720;7.296;2023-09-30T08:36:26;14.00;99.90
4399;DHT22;2213;49.720;7.296;2023-09-30T08:38:56;14.10;99.90
4399;DHT22;2213;49.720;7.296;2023-09-30T08:41:31;14.00;99.90
4399;DHT22;2213;49.720;7.296;2023-09-30T08:44:01;14.10;99.90
4399;DHT22;2213;49.720;7.296;2023-09-30T08:46:32;14.20;99.90
4399;DHT22;2213;49.720;7.296;2023-09-30T08:49:05;14.30;99.90
4399;DHT22;2213;49.720;7.296;2023-09-30T08:51:35;14.30;99.90
4399;DHT22;2213;49.720;7.296;2023-09-30T08:54:06;14.30;99.90
4399;DHT22;2213;49.720;7.296;2023-09-30T08:56:41;14.30;99.90
4399;DHT22;2213;49.720;7.296;2023-09-30T08:59:16;14.30;99.90
4399;DHT22;2213;49.720;7.296;2023-09-30T09:01:49;14.40;99.90
4399;DHT22;2213;49.720;7.296;2023-09-30T09:04:18;14.50;99.90
4399;DHT22;2213;49.720;7.296;2023-09-30T09:06:48;14.40;99.90
4399;DHT22;2213;49.720;7.296;2023-09-30T09:09:18;14.60;99.90
4399;DHT22;2213;49.720;7.296;2023-09-30T09:11:51;14.60;99.90
4399;DHT22;2213;49.720;7.296;2023-09-30T09:14:36;14.70;99.90
4399;DHT22;2213;49.720;7.296;2023-09-30T09:17:07;14.60;99.90
4399;DHT22;2213;49.720;7.296;2023-09-30T09:19:37;14.60;99.90
4399;DHT22;2213;49.720;7.296;2023-09-30T09:22:08;14.60;99.90
4399;DHT22;2213;49.720;7.296;2023-09-30T09:24:38;14.70;99.90
4399;DHT22;2213;49.720;7.296;2023-09-30T09:27:12;14.70;99.90
4399;DHT22;2213;49.720;7.296;2023-09-30T09:29:44;14.70;99.90
4399;DHT22;2213;49.720;7.296;2023-09-30T09:32:15;14.80;99.90
4399;DHT22;2213;49.720;7.296;2023-09-30T09:34:45;14.90;99.90
4399;DHT22;2213;49.720;7.296;2023-09-30T09:37:32;14.90;99.90
4399;DHT22;2213;49.720;7.296;2023-09-30T09:40:03;14.90;99.90
4399;DHT22;2213;49.720;7.296;2023-09-30T09:42:36;15.00;99.90
4399;DHT22;2213;49.720;7.296;2023-09-30T09:45:08;15.10;99.90
4399;DHT22;2213;49.720;7.296;2023-09-30T09:47:40;15.20;99.90
4399;DHT22;2213;49.720;7.296;2023-09-30T09:50:12;15.20;99.90
4399;DHT22;2213;49.720;7.296;2023-09-30T09:52:43;15.30;99.90
4399;DHT22;2213;49.720;7.296;2023-09-30T09:55:17;15.30;99.90
4399;DHT22;2213;49.720;7.296;2023-09-30T09:57:49;15.40;99.90
4399;DHT22;2213;49.720;7.296;2023-09-30T10:00:22;15.40;99.90
4399;DHT22;2213;49.720;7.296;2023-09-30T10:02:52;15.60;99.90
4399;DHT22;2213;49.720;7.296;2023-09-30T10:05:22;15.60;99.90
4399;DHT22;2213;49.720;7.296;2023-09-30T10:07:56;15.70;99.90
4399;DHT22;2213;49.720;7.296;2023-09-30T10:10:31;15.90;99.90
4399;DHT22;2213;49.720;7.296;2023-09-30T10:13:06;16.00;99.90
4399;DHT22;2213;49.720;7.296;2023-09-30T10:15:39;16.10;99.90
4399;DHT22;2213;49.720;7.296;2023-09-30T10:18:12;16.20;99.90
4399;DHT22;2213;49.720;7.296;2023-09-30T10:20:44;16.20;99.90
4399;DHT22;2213;49.720;7.296;2023-09-30T10:23:20;16.30;99.90
4399;DHT22;2213;49.720;7.296;2023-09-30T10:26:17;16.40;99.90
4399;DHT22;2213;49.720;7.296;2023-09-30T10:28:52;16.50;99.90
4399;DHT22;2213;49.720;7.296;2023-09-30T10:31:23;16.60;99.90
4399;DHT22;2213;49.720;7.296;2023-09-30T10:34:20;16.60;99.90
4399;DHT22;2213;49.720;7.296;2023-09-30T10:36:51;16.70;99.90
4399;DHT22;2213;49.720;7.296;2023-09-30T10:39:55;16.80;99.90
4399;DHT22;2213;49.720;7.296;2023-09-30T10:42:51;16.80;99.90
4399;DHT22;2213;49.720;7.296;2023-09-30T10:45:45;16.90;99.90
4399;DHT22;2213;49.720;7.296;2023-09-30T10:48:38;16.90;99.90
4399;DHT22;2213;49.720;7.296;2023-09-30T10:51:16;16.90;99.90
4399;DHT22;2213;49.720;7.296;2023-09-30T10:53:50;16.90;99.90
4399;DHT22;2213;49.720;7.296;2023-09-30T10:56:20;16.90;99.90
4399;DHT22;2213;49.720;7.296;2023-09-30T10:58:51;16.90;99.90
4399;DHT22;2213;49.720;7.296;2023-09-30T11:01:23;17.00;99.90
4399;DHT22;2213;49.720;7.296;2023-09-30T11:03:59;17.10;99.90
4399;DHT22;2213;49.720;7.296;2023-09-30T11:06:34;17.10;99.90
4399;DHT22;2213;49.720;7.296;2023-09-30T11:09:09;17.20;99.90
4399;DHT22;2213;49.720;7.296;2023-09-30T11:11:46;17.10;99.90
4399;DHT22;2213;49.720;7.296;2023-09-30T11:14:40;17.10;99.90
4399;DHT22;2213;49.720;7.296;2023-09-30T11:17:11;17.10;99.90
4399;DHT22;2213;49.720;7.296;2023-09-30T11:19:47;17.20;99.90
4399;DHT22;2213;49.720;7.296;2023-09-30T11:22:17;17.20;99.90
4399;DHT22;2213;49.720;7.296;2023-09-30T11:24:48;17.20;99.90
4399;DHT22;2213;49.720;7.296;2023-09-30T11:27:23;17.20;99.90
4399;DHT22;2213;49.720;7.296;2023-09-30T11:29:54;17.30;99.90
4399;DHT22;2213;49.720;7.296;2023-09-30T11:32:25;17.30;99.90
4399;DHT22;2213;49.720;7.296;2023-09-30T11:34:56;17.30;99.90
4399;DHT22;2213;49.720;7.296;2023-09-30T11:37:31;17.30;99.90
4399;DHT22;2213;49.720;7.296;2023-09-30T11:40:14;17.40;99.90
4399;DHT22;2213;49.720;7.296;2023-09-30T11:43:09;17.40;99.90
4399;DHT22;2213;49.720;7.296;2023-09-30T11:45:39;17.40;99.90
4399;DHT22;2213;49.720;7.296;2023-09-30T11:48:18;17.50;99.90
4399;DHT22;2213;49.720;7.296;2023-09-30T11:50:48;17.60;99.90
4399;DHT22;2213;49.720;7.296;2023-09-30T11:53:20;17.60;99.90
4399;DHT22;2213;49.720;7.296;2023-09-30T11:55:50;17.70;99.90
4399;DHT22;2213;49.720;7.296;2023-09-30T11:58:23;17.80;99.90
4399;DHT22;2213;49.720;7.296;2023-09-30T12:00:55;17.90;99.90
4399;DHT22;2213;49.720;7.296;2023-09-30T12:03:28;18.00;99.90
4399;DHT22;2213;49.720;7.296;2023-09-30T12:05:58;18.10;99.90
4399;DHT22;2213;49.720;7.296;2023-09-30T12:08:28;18.10;99.90
4399;DHT22;2213;49.720;7.296;2023-09-30T12:10:59;18.20;99.90
4399;DHT22;2213;49.720;7.296;2023-09-30T12:13:29;18.20;99.90
4399;DHT22;2213;49.720;7.296;2023-09-30T12:15:58;18.30;99.90
4399;DHT22;2213;49.720;7.296;2023-09-30T12:18:29;18.30;99.90
4399;DHT22;2213;49.720;7.296;2023-09-30T12:21:00;18.30;99.90
4399;DHT22;2213;49.720;7.296;2023-09-30T12:23:30;18.40;99.90
4399;DHT22;2213;49.720;7.296;2023-09-30T12:25:59;18.40;99.90
4399;DHT22;2213;49.720;7.296;2023-09-30T12:28:41;18.40;99.90
4399;DHT22;2213;49.720;7.296;2023-09-30T12:31:12;18.60;99.90
4399;DHT22;2213;49.720;7.296;2023-09-30T12:33:46;18.60;99.90
4399;DHT22;2213;49.720;7.296;2023-09-30T12:36:18;18.60;99.90
4399;DHT22;2213;49.720;7.296;2023-09-30T12:38:47;18.60;99.90
4399;DHT22;2213;49.720;7.296;2023-09-30T12:41:16;18.60;99.90
4399;DHT22;2213;49.720;7.296;2023-09-30T12:43:47;18.60;99.90
4399;DHT22;2213;49.720;7.296;2023-09-30T12:46:17;18.60;99.90
4399;DHT22;2213;49.720;7.296;2023-09-30T12:48:47;18.60;99.90
4399;DHT22;2213;49.720;7.296;2023-09-30T12:51:17;18.70;99.90
4399;DHT22;2213;49.720;7.296;2023-09-30T12:53:48;18.70;99.90
4399;DHT22;2213;49.720;7.296;2023-09-30T12:56:19;18.60;99.90
4399;DHT22;2213;49.720;7.296;2023-09-30T12:58:50;18.70;99.90
4399;DHT22;2213;49.720;7.296;2023-09-30T13:01:20;18.80;99.90
4399;DHT22;2213;49.720;7.296;2023-09-30T13:03:52;18.80;99.90
4399;DHT22;2213;49.720;7.296;2023-09-30T13:06:22;18.90;99.90
4399;DHT22;2213;49.720;7.296;2023-09-30T13:08:52;18.80;99.90
4399;DHT22;2213;49.720;7.296;2023-09-30T13:11:22;18.80;99.90
4399;DHT22;2213;49.720;7.296;2023-09-30T13:13:50;18.80;99.90
4399;DHT22;2213;49.720;7.296;2023-09-30T13:16:20;18.70;99.90
4399;DHT22;2213;49.720;7.296;2023-09-30T13:18:51;18.70;99.90
4399;DHT22;2213;49.720;7.296;2023-09-30T13:21:20;18.90;99.90
4399;DHT22;2213;49.720;7.296;2023-09-30T13:23:50;18.80;99.90
4399;DHT22;2213;49.720;7.296;2023-09-30T13:26:20;18.90;99.90
4399;DHT22;2213;49.720;7.296;2023-09-30T13:28:49;18.90;99.90
4399;DHT22;2213;49.720;7.296;2023-09-30T13:31:20;19.00;99.90
4399;DHT22;2213;49.720;7.296;2023-09-30T13:33:51;19.00;99.90
4399;DHT22;2213;49.720;7.296;2023-09-30T13:36:22;19.00;99.90
4399;DHT22;2213;49.720;7.296;2023-09-30T13:38:52;19.00;99.90
4399;DHT22;2213;49.720;7.296;2023-09-30T13:41:22;19.10;99.90
4399;DHT22;2213;49.720;7.296;2023-09-30T13:43:51;19.10;99.90
4399;DHT22;2213;49.720;7.296;2023-09-30T13:46:21;19.20;99.90
4399;DHT22;2213;49.720;7.296;2023-09-30T13:48:53;19.30;99.90
4399;DHT22;2213;49.720;7.296;2023-09-30T13:51:23;19.30;99.90
4399;DHT22;2213;49.720;7.296;2023-09-30T13:53:53;19.40;99.90
4399;DHT22;2213;49.720;7.296;2023-09-30T13:56:22;19.80;99.90
4399;DHT22;2213;49.720;7.296;2023-09-30T13:58:52;20.00;99.90
4399;DHT22;2213;49.720;7.296;2023-09-30T14:01:23;20.30;99.90
4399;DHT22;2213;49.720;7.296;2023-09-30T14:03:55;20.20;99.90
4399;DHT22;2213;49.720;7.296;2023-09-30T14:06:25;20.30;99.90
4399;DHT22;2213;49.720;7.296;2023-09-30T14:08:56;20.40;99.90
4399;DHT22;2213;49.720;7.296;2023-09-30T14:11:26;20.70;99.90
4399;DHT22;2213;49.720;7.296;2023-09-30T14:13:58;20.70;99.90
4399;DHT22;2213;49.720;7.296;2023-09-30T14:16:29;20.80;99.90
4399;DHT22;2213;49.720;7.296;2023-09-30T14:19:00;20.70;99.90
4399;DHT22;2213;49.720;7.296;2023-09-30T14:21:29;20.70;99.90
4399;DHT22;2213;49.720;7.296;2023-09-30T14:24:00;20.50;99.90
4399;DHT22;2213;49.720;7.296;2023-09-30T14:26:30;20.60;99.90
4399;DHT22;2213;49.720;7.296;2023-09-30T14:29:00;20.50;99.90
4399;DHT22;2213;49.720;7.296;2023-09-30T14:31:31;20.40;99.90
4399;DHT22;2213;49.720;7.296;2023-09-30T14:34:05;20.40;99.90
4399;DHT22;2213;49.720;7.296;2023-09-30T14:36:34;20.40;99.90
4399;DHT22;2213;49.720;7.296;2023-09-30T14:39:04;20.50;99.90
4399;DHT22;2213;49.720;7.296;2023-09-30T14:41:41;20.50;99.90
4399;DHT22;2213;49.720;7.296;2023-09-30T14:44:11;20.70;99.90
4399;DHT22;2213;49.720;7.296;2023-09-30T14:46:40;20.60;99.90
4399;DHT22;2213;49.720;7.296;2023-09-30T14:49:14;20.60;99.90
4399;DHT22;2213;49.720;7.296;2023-09-30T14:51:45;20.40;99.90
4399;DHT22;2213;49.720;7.296;2023-09-30T14:54:16;20.60;99.70
4399;DHT22;2213;49.720;7.296;2023-09-30T14:56:47;20.70;99.90
4399;DHT22;2213;49.720;7.296;2023-09-30T14:59:18;20.70;99.90
4399;DHT22;2213;49.720;7.296;2023-09-30T15:01:48;20.70;99.90
4399;DHT22;2213;49.720;7.296;2023-09-30T15:04:22;20.70;99.90
4399;DHT22;2213;49.720;7.296;2023-09-30T15:06:53;20.70;99.20
4399;DHT22;2213;49.720;7.296;2023-09-30T15:09:24;20.80;99.50
4399;DHT22;2213;49.720;7.296;2023-09-30T15:11:54;20.70;99.90
4399;DHT22;2213;49.720;7.296;2023-09-30T15:14:24;20.60;99.90
4399;DHT22;2213;49.720;7.296;2023-09-30T15:16:53;20.50;99.90
4399;DHT22;2213;49.720;7.296;2023-09-30T15:19:25;20.50;99.90
4399;DHT22;2213;49.720;7.296;2023-09-30T15:21:55;20.60;99.90
4399;DHT22;2213;49.720;7.296;2023-09-30T15:24:26;20.50;99.90
4399;DHT22;2213;49.720;7.296;2023-09-30T15:26:56;20.60;99.90
4399;DHT22;2213;49.720;7.296;2023-09-30T15:29:25;20.60;99.90
4399;DHT22;2213;49.720;7.296;2023-09-30T15:31:55;20.50;99.90
4399;DHT22;2213;49.720;7.296;2023-09-30T15:34:26;20.60;99.90
4399;DHT22;2213;49.720;7.296;2023-09-30T15:36:57;20.40;99.90
4399;DHT22;2213;49.720;7.296;2023-09-30T15:39:26;20.40;99.90
4399;DHT22;2213;49.720;7.296;2023-09-30T15:41:56;20.20;99.90
4399;DHT22;2213;49.720;7.296;2023-09-30T15:44:27;20.00;99.90
4399;DHT22;2213;49.720;7.296;2023-09-30T15:46:58;19.90;99.90
4399;DHT22;2213;49.720;7.296;2023-09-30T15:49:30;19.80;99.90
4399;DHT22;2213;49.720;7.296;2023-09-30T15:51:59;19.70;99.90
4399;DHT22;2213;49.720;7.296;2023-09-30T15:54:28;19.60;99.90
4399;DHT22;2213;49.720;7.296;2023-09-30T15:56:57;19.50;99.90
4399;DHT22;2213;49.720;7.296;2023-09-30T15:59:27;19.30;99.90
4399;DHT22;2213;49.720;7.296;2023-09-30T16:01:57;19.20;99.90
4399;DHT22;2213;49.720;7.296;2023-09-30T16:04:28;19.10;99.90
4399;DHT22;2213;49.720;7.296;2023-09-30T16:06:59;19.10;99.90
4399;DHT22;2213;49.720;7.296;2023-09-30T16:09:29;19.00;99.90
4399;DHT22;2213;49.720;7.296;2023-09-30T16:12:00;19.00;99.90
4399;DHT22;2213;49.720;7.296;2023-09-30T16:14:30;19.00;99.90
4399;DHT22;2213;49.720;7.296;2023-09-30T16:17:00;18.90;99.90
4399;DHT22;2213;49.720;7.296;2023-09-30T16:19:31;18.90;99.90
4399;DHT22;2213;49.720;7.296;2023-09-30T16:22:01;18.90;99.90
4399;DHT22;2213;49.720;7.296;2023-09-30T16:24:32;18.70;99.90
4399;DHT22;2213;49.720;7.296;2023-09-30T16:27:02;18.60;99.90
4399;DHT22;2213;49.720;7.296;2023-09-30T16:29:33;18.40;99.90